createdAt,value
2022-12-03T00:01:40.612Z,14.17
2022-12-03T00:04:27.347Z,19.47
2022-12-03T00:07:13.741Z,13.70
2022-12-03T00:10:00.167Z,12.80
2022-12-03T00:12:47.283Z,14.00
2022-12-03T00:15:33.807Z,19.63
2022-12-03T00:18:20.290Z,18.27
2022-12-03T00:21:06.910Z,18.13
2022-12-03T00:23:53.435Z,18.07
2022-12-03T00:26:39.948Z,16.13
2022-12-03T00:29:27.214Z,16.13
2022-12-03T00:32:14.150Z,15.37
2022-12-03T00:35:00.894Z,16.70
2022-12-03T00:37:47.558Z,16.83
2022-12-03T00:40:34.955Z,14.50
2022-12-03T00:43:21.322Z,15.80
2022-12-03T00:46:07.786Z,14.80
2022-12-03T00:48:54.511Z,18.90
2022-12-03T00:51:41.185Z,12.90
2022-12-03T00:54:31.832Z,15.90
2022-12-03T00:57:18.793Z,14.73
2022-12-03T01:00:06.173Z,14.73
2022-12-03T01:02:52.875Z,11.47
2022-12-03T01:05:39.531Z,12.60
2022-12-03T01:08:25.858Z,13.30
2022-12-03T01:11:30.814Z,14.23
2022-12-03T01:14:19.590Z,9.73
2022-12-03T01:17:06.814Z,11.40
2022-12-03T01:19:53.343Z,13.50
2022-12-03T01:22:39.695Z,16.87
2022-12-03T01:25:26.294Z,12.93
2022-12-03T01:28:12.701Z,14.00
2022-12-03T01:31:17.741Z,16.17
2022-12-03T01:34:04.827Z,15.30
2022-12-03T01:36:53.742Z,13.23
2022-12-03T01:39:40.475Z,14.07
2022-12-03T01:42:31.497Z,14.13
2022-12-03T01:45:23.672Z,17.03
2022-12-03T01:48:16.676Z,13.73
2022-12-03T01:51:03.522Z,13.87
2022-12-03T01:53:50.244Z,15.03
2022-12-03T01:56:36.868Z,15.83
2022-12-03T01:59:36.250Z,13.87
2022-12-03T02:02:32.614Z,12.43
2022-12-03T02:05:26.293Z,16.20
2022-12-03T02:08:32.394Z,15.80
2022-12-03T02:11:41.095Z,12.03
2022-12-03T02:14:28.279Z,12.27
2022-12-03T02:17:15.017Z,14.13
2022-12-03T02:20:04.640Z,14.13
2022-12-03T02:22:51.415Z,14.83
2022-12-03T02:25:38.337Z,13.23
2022-12-03T02:28:25.123Z,13.97
2022-12-03T02:31:11.977Z,13.07
2022-12-03T02:33:58.655Z,12.50
2022-12-03T02:36:45.031Z,11.70
2022-12-03T02:39:33.643Z,12.27
2022-12-03T02:42:36.038Z,12.57
2022-12-03T02:45:29.184Z,13.80
2022-12-03T02:48:37.266Z,11.93
2022-12-03T02:51:23.978Z,11.27
2022-12-03T02:54:10.341Z,11.87
2022-12-03T02:56:56.739Z,12.53
2022-12-03T02:59:45.197Z,9.97
2022-12-03T03:02:32.339Z,9.93
2022-12-03T03:05:21.849Z,17.07
2022-12-03T03:08:09.542Z,13.47
2022-12-03T03:10:57.083Z,10.03
2022-12-03T03:13:43.790Z,13.10
2022-12-03T03:16:30.501Z,15.27
2022-12-03T03:19:17.797Z,11.27
2022-12-03T03:22:04.465Z,12.60
2022-12-03T03:24:51.057Z,13.80
2022-12-03T03:27:38.804Z,16.90
2022-12-03T03:30:25.098Z,13.80
2022-12-03T03:33:13.294Z,12.93
2022-12-03T03:36:00.941Z,11.83
2022-12-03T03:38:47.829Z,11.07
2022-12-03T03:41:35.296Z,12.13
2022-12-03T03:44:22.164Z,12.53
2022-12-03T03:47:08.918Z,11.37
2022-12-03T03:49:55.781Z,13.97
2022-12-03T03:52:43.119Z,10.67
2022-12-03T03:55:31.076Z,12.87
2022-12-03T03:58:17.703Z,13.47
2022-12-03T04:01:04.339Z,14.63
2022-12-03T04:03:53.589Z,14.70
2022-12-03T04:06:40.030Z,15.07
2022-12-03T04:09:26.415Z,13.53
2022-12-03T04:12:32.004Z,17.77
2022-12-03T04:15:20.083Z,14.80
2022-12-03T04:18:25.284Z,12.43
2022-12-03T04:21:33.563Z,10.20
2022-12-03T04:24:20.122Z,12.90
2022-12-03T04:27:25.240Z,17.10
2022-12-03T04:30:12.036Z,15.27
2022-12-03T04:33:16.884Z,17.93
2022-12-03T04:36:03.377Z,14.47
2022-12-03T04:38:49.684Z,16.73
2022-12-03T04:41:36.277Z,19.17
2022-12-03T04:44:37.609Z,15.33
2022-12-03T04:47:24.408Z,16.43
2022-12-03T04:50:11.257Z,17.03
2022-12-03T04:52:57.717Z,16.03
2022-12-03T04:55:44.180Z,18.03
2022-12-03T04:58:30.761Z,18.30
2022-12-03T05:01:17.110Z,20.30
2022-12-03T05:04:04.107Z,16.53
2022-12-03T05:06:50.795Z,18.30
2022-12-03T05:09:37.448Z,18.57
2022-12-03T05:12:23.748Z,21.60
2022-12-03T05:15:10.354Z,19.47
2022-12-03T05:17:57.041Z,19.77
2022-12-03T05:20:49.658Z,20.07
2022-12-03T05:23:39.258Z,15.50
2022-12-03T05:26:25.855Z,20.83
2022-12-03T05:29:12.383Z,21.27
2022-12-03T05:31:59.188Z,20.83
2022-12-03T05:34:45.547Z,20.17
2022-12-03T05:37:31.825Z,25.00
2022-12-03T05:40:18.559Z,22.30
2022-12-03T05:43:05.315Z,21.77
2022-12-03T05:45:51.744Z,21.30
2022-12-03T05:48:38.417Z,26.43
2022-12-03T05:51:24.769Z,23.07
2022-12-03T05:54:11.094Z,19.57
2022-12-03T05:56:57.287Z,19.70
2022-12-03T05:59:43.691Z,21.37
2022-12-03T06:02:30.093Z,20.17
2022-12-03T06:05:20.139Z,23.80
2022-12-03T06:08:06.966Z,20.70
2022-12-03T06:10:53.646Z,23.17
2022-12-03T06:13:40.328Z,23.87
2022-12-03T06:16:27.021Z,22.57
2022-12-03T06:19:13.702Z,25.43
2022-12-03T06:22:00.011Z,24.77
2022-12-03T06:24:46.697Z,29.67
2022-12-03T06:27:33.179Z,24.30
2022-12-03T06:30:19.633Z,22.30
2022-12-03T06:33:06.337Z,27.33
2022-12-03T06:35:52.691Z,24.57
2022-12-03T06:38:38.975Z,26.43
2022-12-03T06:41:25.763Z,24.87
2022-12-03T06:44:12.305Z,27.27
2022-12-03T06:46:58.868Z,22.70
2022-12-03T06:49:45.478Z,28.80
2022-12-03T06:52:31.740Z,25.93
2022-12-03T06:55:20.351Z,28.83
2022-12-03T06:58:07.158Z,26.93
2022-12-03T07:00:54.341Z,32.87
2022-12-03T07:03:40.622Z,31.67
2022-12-03T07:06:27.374Z,27.83
2022-12-03T07:09:16.283Z,31.33
2022-12-03T07:12:02.861Z,26.07
2022-12-03T07:14:49.297Z,28.80
2022-12-03T07:17:35.746Z,30.37
2022-12-03T07:20:22.005Z,32.20
2022-12-03T07:23:15.341Z,33.53
2022-12-03T07:26:01.836Z,31.47
2022-12-03T07:28:48.336Z,30.43
2022-12-03T07:31:35.184Z,26.23
2022-12-03T07:34:21.951Z,32.67
2022-12-03T07:37:08.357Z,25.23
2022-12-03T07:39:54.649Z,29.60
2022-12-03T07:42:40.978Z,35.63
2022-12-03T07:45:27.766Z,30.93
2022-12-03T07:48:14.348Z,32.90
2022-12-03T07:51:00.723Z,31.47
2022-12-03T07:53:47.194Z,29.87
2022-12-03T07:56:33.814Z,28.00
2022-12-03T07:59:21.225Z,28.33
2022-12-03T08:02:09.217Z,31.47
2022-12-03T08:04:56.133Z,28.30
2022-12-03T08:07:43.023Z,26.03
2022-12-03T08:10:32.595Z,26.77
2022-12-03T08:13:19.292Z,26.00
2022-12-03T08:16:15.829Z,29.00
2022-12-03T08:19:02.464Z,23.73
2022-12-03T08:21:53.129Z,24.37
2022-12-03T08:24:43.704Z,30.57
2022-12-03T08:27:30.754Z,30.70
2022-12-03T08:30:18.188Z,27.53
2022-12-03T08:33:23.742Z,27.67
2022-12-03T08:36:18.788Z,32.10
2022-12-03T08:39:30.274Z,28.77
2022-12-03T08:42:36.647Z,25.77
2022-12-03T08:45:29.147Z,26.20
2022-12-03T08:48:34.950Z,26.87
2022-12-03T08:51:25.356Z,27.53
2022-12-03T08:54:19.339Z,25.47
2022-12-03T08:57:27.799Z,29.87
2022-12-03T09:00:23.781Z,28.93
2022-12-03T09:03:15.993Z,27.27
2022-12-03T09:06:02.704Z,27.07
2022-12-03T09:08:50.168Z,27.07
2022-12-03T09:11:36.975Z,27.53
2022-12-03T09:14:23.811Z,28.03
2022-12-03T09:17:10.410Z,25.87
2022-12-03T09:19:57.087Z,27.77
2022-12-03T09:22:43.529Z,36.93
2022-12-03T09:25:29.779Z,24.93
2022-12-03T09:28:15.984Z,24.77
2022-12-03T09:31:02.290Z,25.30
2022-12-03T09:33:48.856Z,24.90
2022-12-03T09:36:35.578Z,24.60
2022-12-03T09:39:22.403Z,27.40
2022-12-03T09:42:09.784Z,33.77
2022-12-03T09:44:56.457Z,24.60
2022-12-03T09:47:48.956Z,28.00
2022-12-03T09:50:40.731Z,26.63
2022-12-03T09:53:27.494Z,26.77
2022-12-03T09:56:20.398Z,29.07
2022-12-03T09:59:13.910Z,30.00
2022-12-03T10:02:01.735Z,32.10
2022-12-03T10:04:49.153Z,24.20
2022-12-03T10:07:35.942Z,29.00
2022-12-03T10:10:25.202Z,26.90
2022-12-03T10:13:25.461Z,27.47
2022-12-03T10:16:16.059Z,22.90
2022-12-03T10:19:02.842Z,27.67
2022-12-03T10:21:50.788Z,24.63
2022-12-03T10:24:38.136Z,34.20
2022-12-03T10:27:30.322Z,21.97
2022-12-03T10:30:20.344Z,26.10
2022-12-03T10:33:18.901Z,25.20
2022-12-03T10:36:26.564Z,24.13
2022-12-03T10:39:16.295Z,23.53
2022-12-03T10:42:16.148Z,23.10
2022-12-03T10:45:16.319Z,22.20
2022-12-03T10:48:11.052Z,20.50
2022-12-03T10:51:07.143Z,18.10
2022-12-03T10:53:54.403Z,18.57
2022-12-03T10:56:40.933Z,16.80
2022-12-03T10:59:32.881Z,19.03
2022-12-03T11:02:22.711Z,22.93
2022-12-03T11:05:15.798Z,16.47
2022-12-03T11:08:03.984Z,18.27
2022-12-03T11:11:05.861Z,17.00
2022-12-03T11:13:57.526Z,18.43
2022-12-03T11:16:47.151Z,16.67
2022-12-03T11:19:36.396Z,21.40
2022-12-03T11:22:27.110Z,18.23
2022-12-03T11:25:28.401Z,18.00
2022-12-03T11:28:14.740Z,18.27
2022-12-03T11:31:09.179Z,10.67
2022-12-03T11:34:18.277Z,11.47
2022-12-03T11:37:10.972Z,13.07
2022-12-03T11:40:00.618Z,11.67
2022-12-03T11:42:48.869Z,14.47
2022-12-03T11:45:38.161Z,13.60
2022-12-03T11:48:24.761Z,19.60
2022-12-03T11:51:20.476Z,14.77
2022-12-03T11:54:18.881Z,19.27
2022-12-03T11:57:26.309Z,17.87
2022-12-03T12:00:19.761Z,19.20
2022-12-03T12:03:23.727Z,16.93
2022-12-03T12:06:11.930Z,19.87
2022-12-03T12:08:59.747Z,20.27
2022-12-03T12:11:46.191Z,18.30
2022-12-03T12:14:32.478Z,17.07
2022-12-03T12:17:36.589Z,19.23
2022-12-03T12:20:27.923Z,15.90
2022-12-03T12:23:28.071Z,17.03
2022-12-03T12:26:14.877Z,16.37
2022-12-03T12:29:01.557Z,17.17
2022-12-03T12:31:54.134Z,15.20
2022-12-03T12:34:50.426Z,13.97
2022-12-03T12:37:47.727Z,14.60
2022-12-03T12:40:38.324Z,14.87
2022-12-03T12:43:31.686Z,17.07
2022-12-03T12:46:46.690Z,15.47
2022-12-03T12:49:26.934Z,13.37
2022-12-03T12:52:14.955Z,15.17
2022-12-03T12:55:04.883Z,17.07
2022-12-03T12:57:51.974Z,13.73
2022-12-03T13:00:38.721Z,17.07
2022-12-03T13:03:28.665Z,14.83
2022-12-03T13:06:16.747Z,16.40
2022-12-03T13:09:03.070Z,16.03
2022-12-03T13:12:00.760Z,18.63
2022-12-03T13:14:47.707Z,22.43
2022-12-03T13:17:34.439Z,22.63
2022-12-03T13:20:21.032Z,30.37
2022-12-03T13:23:22.450Z,15.77
2022-12-03T13:26:39.092Z,13.23
2022-12-03T13:29:27.453Z,15.20
2022-12-03T13:32:16.676Z,18.87
2022-12-03T13:35:11.833Z,17.83
2022-12-03T13:37:59.122Z,17.67
2022-12-03T13:40:46.127Z,16.67
2022-12-03T13:43:39.904Z,17.50
2022-12-03T13:46:34.581Z,13.40
2022-12-03T13:49:23.931Z,15.97
2022-12-03T13:52:16.207Z,22.57
2022-12-03T13:55:03.868Z,16.03
2022-12-03T13:57:50.317Z,17.20
2022-12-03T14:00:37.583Z,17.37
2022-12-03T14:03:24.294Z,20.53
2022-12-03T14:06:10.664Z,18.47
2022-12-03T14:08:57.319Z,17.47
2022-12-03T14:12:02.213Z,21.07
2022-12-03T14:14:48.875Z,22.90
2022-12-03T14:17:35.437Z,22.63
2022-12-03T14:20:22.123Z,23.70
2022-12-03T14:23:08.559Z,19.10
2022-12-03T14:25:55.261Z,23.73
2022-12-03T14:28:41.974Z,19.80
2022-12-03T14:31:28.768Z,19.00
2022-12-03T14:34:15.474Z,17.53
2022-12-03T14:37:04.907Z,20.73
2022-12-03T14:39:51.276Z,18.90
2022-12-03T14:42:37.988Z,19.97
2022-12-03T14:45:26.112Z,17.17
2022-12-03T14:48:12.584Z,21.20
2022-12-03T14:50:59.787Z,16.97
2022-12-03T14:53:46.259Z,21.57
2022-12-03T14:56:32.520Z,18.07
2022-12-03T14:59:24.411Z,22.63
2022-12-03T15:02:16.783Z,19.43
2022-12-03T15:05:03.825Z,24.03
2022-12-03T15:07:50.508Z,23.13
2022-12-03T15:10:37.125Z,23.03
2022-12-03T15:13:23.817Z,24.50
2022-12-03T15:16:10.139Z,17.10
2022-12-03T15:18:56.968Z,19.73
2022-12-03T15:21:43.658Z,19.43
2022-12-03T15:24:31.304Z,21.23
2022-12-03T15:27:18.179Z,20.20
2022-12-03T15:30:06.089Z,24.13
2022-12-03T15:32:52.600Z,20.13
2022-12-03T15:35:39.338Z,20.50
2022-12-03T15:38:26.797Z,13.87
2022-12-03T15:41:24.543Z,20.03
2022-12-03T15:44:10.790Z,20.97
2022-12-03T15:46:57.101Z,21.40
2022-12-03T15:49:43.409Z,24.50
2022-12-03T15:52:29.913Z,20.30
2022-12-03T15:55:21.715Z,21.43
2022-12-03T15:58:08.439Z,24.53
2022-12-03T16:00:55.063Z,20.30
2022-12-03T16:03:41.887Z,19.50
2022-12-03T16:06:28.300Z,21.17
2022-12-03T16:09:14.871Z,18.43
2022-12-03T16:12:01.286Z,22.53
2022-12-03T16:14:47.905Z,22.83
2022-12-03T16:17:34.322Z,21.47
2022-12-03T16:20:20.580Z,21.90
2022-12-03T16:23:07.197Z,21.40
2022-12-03T16:25:53.854Z,22.63
2022-12-03T16:28:40.159Z,22.07
2022-12-03T16:31:26.951Z,17.37
2022-12-03T16:34:13.392Z,17.37
2022-12-03T16:36:59.990Z,20.53
2022-12-03T16:39:46.625Z,20.87
2022-12-03T16:42:33.498Z,11.17
2022-12-03T16:45:51.626Z,18.60
2022-12-03T16:48:38.313Z,18.67
2022-12-03T16:51:30.303Z,19.13
2022-12-03T16:54:17.037Z,19.50
2022-12-03T16:57:04.334Z,15.13
2022-12-03T16:59:51.179Z,21.53
2022-12-03T17:02:38.920Z,18.43
2022-12-03T17:05:27.629Z,17.77
2022-12-03T17:08:16.367Z,18.93
2022-12-03T17:11:04.194Z,28.73
2022-12-03T17:13:50.568Z,19.13
2022-12-03T17:16:37.249Z,12.63
2022-12-03T17:19:24.649Z,22.10
2022-12-03T17:22:11.229Z,18.03
2022-12-03T17:24:57.607Z,20.90
2022-12-03T17:27:45.486Z,19.27
2022-12-03T17:30:32.348Z,15.90
2022-12-03T17:33:18.932Z,14.53
2022-12-03T17:36:06.129Z,18.07
2022-12-03T17:38:52.471Z,17.37
2022-12-03T17:41:38.867Z,19.00
2022-12-03T17:44:25.472Z,17.17
2022-12-03T17:47:13.799Z,17.70
2022-12-03T17:50:00.379Z,12.83
2022-12-03T17:52:46.702Z,14.13
2022-12-03T17:55:38.532Z,17.77
2022-12-03T17:58:29.771Z,17.80
2022-12-03T18:01:16.109Z,17.30
2022-12-03T18:04:02.990Z,15.00
2022-12-03T18:06:49.601Z,18.10
2022-12-03T18:09:36.222Z,17.63
2022-12-03T18:12:22.674Z,17.87
2022-12-03T18:15:10.450Z,15.50
2022-12-03T18:17:56.991Z,16.30
2022-12-03T18:20:43.629Z,17.73
2022-12-03T18:23:30.809Z,14.40
2022-12-03T18:26:17.098Z,21.70
2022-12-03T18:29:03.797Z,16.50
2022-12-03T18:31:50.231Z,15.60
2022-12-03T18:34:36.804Z,19.70
2022-12-03T18:37:27.254Z,18.00
2022-12-03T18:40:27.244Z,15.60
2022-12-03T18:43:15.807Z,13.80
2022-12-03T18:46:04.378Z,16.80
2022-12-03T18:48:51.070Z,23.57
2022-12-03T18:51:37.772Z,22.23
2022-12-03T18:54:24.379Z,17.30
2022-12-03T18:57:11.016Z,19.77
2022-12-03T18:59:58.320Z,15.87
2022-12-03T19:03:02.578Z,18.37
2022-12-03T19:05:50.231Z,17.17
2022-12-03T19:08:36.946Z,18.20
2022-12-03T19:11:23.839Z,17.17
2022-12-03T19:14:11.060Z,21.70
2022-12-03T19:16:57.456Z,23.57
2022-12-03T19:19:44.159Z,26.87
2022-12-03T19:22:30.501Z,17.17
2022-12-03T19:25:18.984Z,23.33
2022-12-03T19:28:07.250Z,19.77
2022-12-03T19:31:02.469Z,22.67
2022-12-03T19:33:49.284Z,20.17
2022-12-03T19:36:35.741Z,23.83
2022-12-03T19:39:22.596Z,17.03
2022-12-03T19:42:10.049Z,19.57
2022-12-03T19:44:56.482Z,24.03
2022-12-03T19:47:42.966Z,20.77
2022-12-03T19:50:30.720Z,21.33
2022-12-03T19:53:17.773Z,19.20
2022-12-03T19:56:06.285Z,21.00
2022-12-03T19:58:55.396Z,23.93
2022-12-03T20:01:43.438Z,26.23
2022-12-03T20:04:30.318Z,22.00
2022-12-03T20:07:18.077Z,22.50
2022-12-03T20:10:05.856Z,20.80
2022-12-03T20:12:52.479Z,21.40
2022-12-03T20:15:38.909Z,21.67
2022-12-03T20:18:27.636Z,26.27
2022-12-03T20:21:16.284Z,21.63
2022-12-03T20:24:03.726Z,26.63
2022-12-03T20:26:50.200Z,21.07
2022-12-03T20:29:36.655Z,22.43
2022-12-03T20:32:23.081Z,23.50
2022-12-03T20:35:09.963Z,23.03
2022-12-03T20:37:56.377Z,19.60
2022-12-03T20:40:42.941Z,22.97
2022-12-03T20:43:29.806Z,22.50
2022-12-03T20:46:28.846Z,27.67
2022-12-03T20:49:15.623Z,22.57
2022-12-03T20:52:04.579Z,31.47
2022-12-03T20:54:51.616Z,15.23
2022-12-03T20:57:38.350Z,24.17
2022-12-03T21:00:25.204Z,24.73
2022-12-03T21:03:11.586Z,29.37
2022-12-03T21:06:01.375Z,20.83
2022-12-03T21:08:47.810Z,20.93
2022-12-03T21:11:36.193Z,24.67
2022-12-03T21:14:23.096Z,24.73
2022-12-03T21:17:10.237Z,22.03
2022-12-03T21:19:57.333Z,20.43
2022-12-03T21:22:44.180Z,19.03
2022-12-03T21:25:31.167Z,26.50
2022-12-03T21:28:17.815Z,20.80
2022-12-03T21:31:07.357Z,19.77
2022-12-03T21:33:55.553Z,20.73
2022-12-03T21:36:42.341Z,18.20
2022-12-03T21:39:29.108Z,15.63
2022-12-03T21:42:34.530Z,20.90
2022-12-03T21:45:25.094Z,23.67
2022-12-03T21:48:12.333Z,18.77
2022-12-03T21:51:06.934Z,17.53
2022-12-03T21:53:53.527Z,16.03
2022-12-03T21:56:39.879Z,19.10
2022-12-03T21:59:26.623Z,22.00
2022-12-03T22:02:13.497Z,18.90
2022-12-03T22:05:00.255Z,19.47
2022-12-03T22:07:47.767Z,21.47
2022-12-03T22:10:35.831Z,18.90
2022-12-03T22:13:22.044Z,23.03
2022-12-03T22:16:12.094Z,19.90
2022-12-03T22:18:58.927Z,15.60
2022-12-03T22:21:46.495Z,18.97
2022-12-03T22:24:32.844Z,22.37
2022-12-03T22:27:19.216Z,19.40
2022-12-03T22:30:06.982Z,22.43
2022-12-03T22:32:53.288Z,21.03
2022-12-03T22:35:39.977Z,23.77
2022-12-03T22:38:26.801Z,20.30
2022-12-03T22:41:14.561Z,22.27
2022-12-03T22:44:01.198Z,21.90
2022-12-03T22:46:48.098Z,22.73
2022-12-03T22:49:35.005Z,18.30
2022-12-03T22:52:21.600Z,15.83
2022-12-03T22:55:09.131Z,17.33
2022-12-03T22:57:56.009Z,25.13
2022-12-03T23:00:42.291Z,24.63
2022-12-03T23:03:28.719Z,24.23
2022-12-03T23:06:15.813Z,21.67
2022-12-03T23:09:04.030Z,17.40
2022-12-03T23:11:50.926Z,22.17
2022-12-03T23:14:37.530Z,19.43
2022-12-03T23:17:23.629Z,17.07
2022-12-03T23:20:10.769Z,21.30
2022-12-03T23:22:57.633Z,17.57
2022-12-03T23:25:44.194Z,20.63
2022-12-03T23:28:32.785Z,22.53
2022-12-03T23:31:28.796Z,24.73
2022-12-03T23:34:15.390Z,20.10
2022-12-03T23:37:03.380Z,18.27
2022-12-03T23:39:49.831Z,19.17
2022-12-03T23:42:36.536Z,22.43
2022-12-03T23:45:23.650Z,20.20
2022-12-03T23:48:10.099Z,18.50
2022-12-03T23:50:56.326Z,21.93
2022-12-03T23:53:43.139Z,24.63
2022-12-03T23:56:30.900Z,21.40
2022-12-03T23:59:17.760Z,24.70
